Time;durP1;ratioP1;P1;durP2;ratioP2;P2;SDS_P1;SDS_P2;PMS_P1;PMS_P2;Temp;Humidity;BMP_temperature;BMP_pressure;BME280_temperature;BME280_humidity;BME280_pressure;Samples;Min_cycle;Max_cycle;Signal;HPM_P1;HPM_P2
2021/11/18 00:00:28;;;;;;;103.70;49.08;;;;;;;-5.01;67.04;101227.00;1764020;79;20877;-67
2021/11/18 00:02:55;;;;;;;101.55;49.10;;;;;;;-5.02;67.08;101222.71;1800409;79;21063;-67
2021/11/18 00:05:24;;;;;;;104.32;51.83;;;;;;;-5.01;67.08;101215.84;1800719;79;20945;-67
2021/11/18 00:07:52;;;;;;;111.03;53.55;;;;;;;-5.01;67.05;101215.84;1781138;79;21820;-68
2021/11/18 00:10:25;;;;;;;144.93;65.67;;;;;;;-5.02;67.07;101216.27;1768367;80;21086;-68
2021/11/18 00:12:52;;;;;;;118.22;57.03;;;;;;;-5.01;67.11;101216.70;1763060;79;21020;-67
2021/11/18 00:15:19;;;;;;;105.72;52.27;;;;;;;-4.98;67.20;101214.53;1768276;80;21017;-68
2021/11/18 00:17:45;;;;;;;103.55;50.58;;;;;;;-4.98;67.15;101220.55;1768759;81;21503;-67
2021/11/18 00:20:14;;;;;;;108.52;50.92;;;;;;;-4.98;67.04;101220.97;1768790;81;24016;-67
2021/11/18 00:22:45;;;;;;;96.95;46.77;;;;;;;-4.98;67.06;101222.27;1762309;81;20929;-68
2021/11/18 00:25:13;;;;;;;85.12;43.33;;;;;;;-4.95;67.09;101220.95;1766956;80;21101;-68
2021/11/18 00:27:39;;;;;;;81.32;43.05;;;;;;;-4.91;67.19;101218.39;1768424;81;20992;-67
2021/11/18 00:30:08;;;;;;;91.32;44.80;;;;;;;-4.91;67.10;101213.66;1768915;81;21032;-67
2021/11/18 00:32:35;;;;;;;102.02;47.60;;;;;;;-4.91;67.12;101210.66;1766466;80;21810;-67
2021/11/18 00:35:05;;;;;;;107.80;48.65;;;;;;;-4.91;67.14;101209.80;1763706;80;21076;-68
2021/11/18 00:37:32;;;;;;;106.78;51.55;;;;;;;-4.92;67.19;101213.24;1766969;81;20988;-67
2021/11/18 00:39:59;;;;;;;89.40;43.10;;;;;;;-4.95;67.28;101209.36;1741008;81;20986;-67
2021/11/18 00:42:25;;;;;;;85.83;42.88;;;;;;;-4.91;67.44;101209.37;1768619;81;21053;-67
2021/11/18 00:44:57;;;;;;;81.30;41.23;;;;;;;-4.85;67.56;101205.04;1762290;80;21814;-67
2021/11/18 00:47:20;;;;;;;75.35;37.48;;;;;;;-4.78;67.57;101210.61;1751287;79;20989;-67
2021/11/18 00:49:48;;;;;;;69.07;36.00;;;;;;;-4.75;67.58;101211.45;1738430;82;20981;-67
2021/11/18 00:52:15;;;;;;;62.35;34.18;;;;;;;-4.71;67.57;101206.73;1749253;81;21016;-68
2021/11/18 00:54:42;;;;;;;62.23;33.73;;;;;;;-4.67;67.61;101206.27;1768642;80;20996;-68
2021/11/18 00:57:09;;;;;;;67.62;34.65;;;;;;;-4.62;67.65;101200.25;1757676;80;22523;-68
2021/11/18 00:59:37;;;;;;;136.82;63.10;;;;;;;-4.59;67.73;101201.09;1764632;81;20996;-67
2021/11/18 01:02:04;;;;;;;118.93;55.83;;;;;;;-4.55;67.83;101201.48;1768186;81;21075;-68
2021/11/18 01:04:30;;;;;;;92.90;45.67;;;;;;;-4.54;67.92;101195.03;1768827;80;20965;-67
2021/11/18 01:06:57;;;;;;;79.35;40.25;;;;;;;-4.51;67.92;101191.61;1768725;81;20993;-67
2021/11/18 01:09:25;;;;;;;83.00;44.45;;;;;;;-4.50;67.87;101187.73;1757484;80;22408;-68
2021/11/18 01:11:52;;;;;;;99.85;51.90;;;;;;;-4.50;67.87;101183.86;1768597;80;20946;-67
2021/11/18 01:14:21;;;;;;;94.95;50.75;;;;;;;-4.50;67.91;101186.44;1768641;80;21009;-67
2021/11/18 01:16:48;;;;;;;90.05;47.03;;;;;;;-4.51;67.95;101183.44;1768866;81;20981;-67
2021/11/18 01:19:16;;;;;;;87.47;42.65;;;;;;;-4.51;67.99;101180.00;1768475;80;21045;-67
2021/11/18 01:21:46;;;;;;;80.92;41.88;;;;;;;-4.54;67.97;101174.84;1770577;79;21843;-66
2021/11/18 01:24:13;;;;;;;89.52;45.40;;;;;;;-4.56;67.99;101177.87;1745642;80;20937;-66
2021/11/18 01:26:42;;;;;;;93.15;45.03;;;;;;;-4.60;68.06;101170.59;1752075;81;20961;-67
2021/11/18 01:29:08;;;;;;;95.22;46.83;;;;;;;-4.62;68.11;101177.48;1747285;81;21471;-66
2021/11/18 01:31:36;;;;;;;96.67;47.75;;;;;;;-4.65;68.13;101177.04;1770174;79;21051;-67
2021/11/18 01:34:03;;;;;;;96.72;49.13;;;;;;;-4.69;68.14;101175.35;1736412;81;21934;-67
2021/11/18 01:36:32;;;;;;;97.97;47.98;;;;;;;-4.72;68.14;101171.94;1730956;81;20997;-66
2021/11/18 01:39:04;;;;;;;95.00;47.60;;;;;;;-4.77;68.16;101173.23;1768476;81;20950;-66
2021/11/18 01:41:31;;;;;;;93.40;48.80;;;;;;;-4.81;68.20;101171.55;1768819;80;21075;-67
2021/11/18 01:44:04;;;;;;;90.17;47.20;;;;;;;-4.86;68.26;101180.14;1771342;79;20992;-66
2021/11/18 01:46:34;;;;;;;103.30;50.10;;;;;;;-4.90;68.33;101176.73;1769179;81;22445;-66
2021/11/18 01:49:06;;;;;;;102.15;48.58;;;;;;;-4.93;68.41;101172.85;1768679;81;20933;-66
2021/11/18 01:51:37;;;;;;;100.92;49.58;;;;;;;-4.96;68.40;101172.87;1768644;80;20949;-66
2021/11/18 01:54:04;;;;;;;108.97;55.25;;;;;;;-5.02;68.37;101171.19;1766470;79;21004;-67
2021/11/18 01:56:33;;;;;;;106.15;52.80;;;;;;;-5.06;68.38;101176.34;1746646;79;21401;-67
2021/11/18 01:59:19;;;;;;;94.20;48.50;;;;;;;-5.10;68.46;101176.79;1767879;80;21817;-66
2021/11/18 02:01:55;;;;;;;90.67;44.55;;;;;;;-5.15;68.55;101172.06;1717010;81;20917;-67
2021/11/18 02:04:27;;;;;;;84.58;42.93;;;;;;;-5.20;68.61;101172.09;1764448;80;21472;-66
2021/11/18 02:07:03;;;;;;;76.42;39.78;;;;;;;-5.20;68.64;101169.52;1781268;79;21004;-67
2021/11/18 02:09:38;;;;;;;78.15;41.75;;;;;;;-5.22;68.68;101171.21;1722752;81;21064;-66
2021/11/18 02:12:12;;;;;;;76.45;39.13;;;;;;;-5.22;68.68;101165.20;1661504;83;22541;-67
2021/11/18 02:14:39;;;;;;;67.47;37.08;;;;;;;-5.23;68.81;101164.35;1708437;83;21451;-66
2021/11/18 02:17:09;;;;;;;72.75;38.30;;;;;;;-5.20;68.89;101166.94;1708502;84;21013;-66
2021/11/18 02:19:46;;;;;;;69.37;36.50;;;;;;;-5.17;68.87;101167.78;1686879;82;21543;-67
2021/11/18 02:22:13;;;;;;;64.70;35.33;;;;;;;-5.15;68.90;101162.20;1727330;82;21113;-67
2021/11/18 02:24:48;;;;;;;70.87;38.48;;;;;;;-5.13;68.95;101165.62;1708507;83;21844;-66
2021/11/18 02:27:21;;;;;;;65.52;34.30;;;;;;;-5.12;69.05;101163.47;1683626;84;21482;-67
2021/11/18 02:29:50;;;;;;;70.87;37.57;;;;;;;-5.13;69.05;101163.89;1705431;83;21458;-66
2021/11/18 02:32:20;;;;;;;76.15;40.23;;;;;;;-5.12;69.06;101167.33;1708756;84;21099;-66
2021/11/18 02:34:58;;;;;;;78.55;42.17;;;;;;;-5.08;69.03;101166.48;1708386;83;20962;-66
2021/11/18 02:37:26;;;;;;;74.62;41.90;;;;;;;-5.07;69.02;101166.90;1707497;83;21907;-66
2021/11/18 02:39:53;;;;;;;75.10;39.98;;;;;;;-5.07;69.07;101163.89;1713923;82;20954;-66
2021/11/18 02:42:20;;;;;;;78.30;42.98;;;;;;;-5.08;69.09;101160.89;1705954;82;21537;-66
2021/11/18 02:44:47;;;;;;;74.82;41.37;;;;;;;-5.08;69.11;101158.75;1708517;84;21572;-67
2021/11/18 02:47:13;;;;;;;75.30;40.88;;;;;;;-5.08;69.15;101154.89;1709010;84;20951;-66
2021/11/18 02:49:47;;;;;;;73.00;39.70;;;;;;;-5.09;69.20;101155.75;1708825;83;21833;-67
2021/11/18 02:52:17;;;;;;;;;;;;;;;-5.12;69.29;101157.88;1674450;82;21001;-67
2021/11/18 02:54:44;;;;;;;70.67;38.80;;;;;;;-5.17;69.29;101148.47;1657468;85;20149;-66
2021/11/18 02:57:10;;;;;;;78.95;40.48;;;;;;;-5.23;69.25;101142.89;1703973;84;20989;-66
2021/11/18 02:59:39;;;;;;;86.75;43.33;;;;;;;-5.27;69.19;101145.92;1718371;82;20959;-66
2021/11/18 03:02:06;;;;;;;76.80;40.78;;;;;;;-5.31;69.02;101141.62;1707602;83;21876;-67
2021/11/18 03:04:33;;;;;;;79.12;41.25;;;;;;;-5.35;68.94;101143.78;1710357;82;21572;-67
2021/11/18 03:07:02;;;;;;;79.40;41.02;;;;;;;-5.38;68.92;101139.94;1700983;82;21436;-67
2021/11/18 03:09:31;;;;;;;83.33;41.23;;;;;;;-5.42;68.91;101145.08;1714705;82;21005;-67
2021/11/18 03:11:59;;;;;;;79.00;42.48;;;;;;;-5.47;68.94;101139.95;1705186;84;21044;-66
2021/11/18 03:14:28;;;;;;;75.03;41.25;;;;;;;-5.49;68.84;101142.97;1705117;84;21850;-66
2021/11/18 03:16:56;;;;;;;73.97;42.27;;;;;;;-5.51;68.73;101142.09;1701768;83;21058;-66
2021/11/18 03:19:24;;;;;;;80.85;40.33;;;;;;;-5.55;68.71;101149.41;1733945;82;20958;-66
2021/11/18 03:21:52;;;;;;;81.65;42.65;;;;;;;-5.57;68.74;101158.84;1723362;82;20993;-66
2021/11/18 03:24:18;;;;;;;83.05;41.75;;;;;;;-5.58;68.79;101157.13;1711446;82;21018;-66
2021/11/18 03:26:45;;;;;;;87.95;44.83;;;;;;;-5.60;68.82;101162.26;1710831;82;22471;-67
2021/11/18 03:29:13;;;;;;;81.70;41.30;;;;;;;-5.58;68.97;101159.28;1732241;82;20997;-66
2021/11/18 03:31:41;;;;;;;84.62;42.70;;;;;;;-5.57;68.79;101161.42;1734132;82;21077;-67
2021/11/18 03:34:12;;;;;;;77.22;41.65;;;;;;;-5.63;68.62;101159.70;1707943;82;21021;-66
2021/11/18 03:36:39;;;;;;;81.25;40.12;;;;;;;-5.66;68.49;101153.28;1679074;82;21013;-66
2021/11/18 03:39:09;;;;;;;80.42;39.83;;;;;;;-5.70;68.43;101154.11;1731642;82;21492;-66
2021/11/18 03:41:41;;;;;;;75.03;38.17;;;;;;;-5.70;68.39;101154.11;1710456;84;21025;-68
2021/11/18 03:44:10;;;;;;;71.87;38.38;;;;;;;-5.70;68.43;101153.27;1710742;83;21025;-67
2021/11/18 03:46:42;;;;;;;69.37;38.10;;;;;;;-5.66;68.56;101150.70;1685850;84;21426;-67
2021/11/18 03:49:09;;;;;;;71.92;38.73;;;;;;;-5.60;68.67;101149.82;1672739;82;21076;-68
2021/11/18 03:51:39;;;;;;;68.90;37.13;;;;;;;-5.54;68.63;101152.40;1721193;82;21805;-67
2021/11/18 03:54:07;;;;;;;69.10;38.35;;;;;;;-5.52;68.67;101138.66;1729772;82;21049;-67
2021/11/18 03:56:40;;;;;;;69.90;38.25;;;;;;;-5.48;68.65;101144.68;1705920;82;21065;-68
2021/11/18 03:59:13;;;;;;;69.22;38.53;;;;;;;-5.45;68.64;101138.66;1757047;80;20985;-67
2021/11/18 04:01:40;;;;;;;72.75;38.33;;;;;;;-5.43;68.71;101138.22;1729485;82;20997;-68
2021/11/18 04:04:09;;;;;;;75.35;38.85;;;;;;;-5.41;68.71;101136.06;1711850;83;21439;-67
2021/11/18 04:06:39;;;;;;;66.47;36.98;;;;;;;-5.39;68.71;101129.66;1702376;82;21471;-67
2021/11/18 04:09:05;;;;;;;68.47;37.58;;;;;;;-5.39;68.73;101122.78;1773311;80;20996;-67
2021/11/18 04:11:33;;;;;;;74.40;37.17;;;;;;;-5.37;68.73;101126.64;1776361;80;21356;-67
2021/11/18 04:14:01;;;;;;;71.53;36.60;;;;;;;-5.39;68.61;101127.08;1776556;80;21009;-67
2021/11/18 04:16:29;;;;;;;65.72;34.98;;;;;;;-5.41;68.60;101131.34;1773504;80;21866;-67
2021/11/18 04:18:55;;;;;;;67.50;37.53;;;;;;;-5.44;68.66;101126.22;1746410;80;20957;-67
2021/11/18 04:21:23;;;;;;;63.45;33.75;;;;;;;-5.49;68.72;101128.81;1776259;80;20989;-67
2021/11/18 04:23:50;;;;;;;61.48;34.90;;;;;;;-5.51;68.74;101124.07;1766545;81;20953;-67
2021/11/18 04:26:17;;;;;;;68.02;38.02;;;;;;;-5.56;68.83;101124.09;1763378;80;21471;-68
2021/11/18 04:28:45;;;;;;;74.22;39.23;;;;;;;-5.59;68.95;101125.83;1733718;81;21833;-67
2021/11/18 04:31:17;;;;;;;67.80;38.42;;;;;;;-5.59;68.95;101127.12;1752809;81;21001;-68
2021/11/18 04:33:44;;;;;;;67.20;39.13;;;;;;;-5.61;68.88;101123.66;1763991;81;21001;-68
2021/11/18 04:36:12;;;;;;;70.05;37.63;;;;;;;-5.61;68.80;101127.09;1763259;81;21369;-68
2021/11/18 04:38:38;;;;;;;71.85;38.50;;;;;;;-5.62;68.72;101127.09;1746792;80;21079;-66
2021/11/18 04:41:05;;;;;;;71.67;39.67;;;;;;;-5.63;68.72;101136.53;1759249;81;22695;-66
2021/11/18 04:43:32;;;;;;;81.75;43.17;;;;;;;-5.63;68.71;101126.24;1764973;81;21068;-66
2021/11/18 04:46:01;;;;;;;78.80;39.03;;;;;;;-5.63;68.72;101131.82;1763466;81;20973;-66
2021/11/18 04:48:27;;;;;;;72.65;37.25;;;;;;;-5.62;68.76;101133.53;1762904;81;20993;-66
2021/11/18 04:50:57;;;;;;;75.17;38.53;;;;;;;-5.63;68.86;101136.97;1763010;81;20945;-64
2021/11/18 04:53:26;;;;;;;73.22;39.33;;;;;;;-5.64;68.94;101142.55;1765193;80;21837;-63
2021/11/18 04:55:53;;;;;;;77.20;39.98;;;;;;;-5.66;69.03;101140.41;1752237;81;21393;-65
2021/11/18 04:58:19;;;;;;;79.67;42.10;;;;;;;-5.68;69.14;101134.41;1734054;81;21440;-65
2021/11/18 05:00:50;;;;;;;70.60;39.73;;;;;;;-5.67;69.16;101137.41;1756271;81;21570;-65
2021/11/18 05:03:17;;;;;;;74.92;40.65;;;;;;;-5.66;69.06;101135.69;1761739;80;21005;-65
2021/11/18 05:05:45;;;;;;;77.92;40.95;;;;;;;-5.68;69.03;101134.41;1741113;82;21871;-64
2021/11/18 05:08:16;;;;;;;80.38;42.45;;;;;;;-5.67;69.05;101128.41;1741807;80;21453;-66
2021/11/18 05:10:45;;;;;;;80.77;43.95;;;;;;;-5.66;69.08;101130.55;1749711;82;21522;-66
2021/11/18 05:13:14;;;;;;;83.40;45.17;;;;;;;-5.66;69.04;101136.98;1750007;81;21060;-64
2021/11/18 05:15:45;;;;;;;100.25;48.42;;;;;;;-5.68;68.97;101136.13;1696916;83;20997;-65
2021/11/18 05:18:12;;;;;;;101.50;49.33;;;;;;;-5.70;69.00;101133.53;1657769;85;21857;-64
2021/11/18 05:20:39;;;;;;;108.30;54.85;;;;;;;-5.69;69.14;101136.96;1674196;84;21029;-64
2021/11/18 05:23:06;;;;;;;115.30;55.63;;;;;;;-5.68;69.28;101137.42;1699026;82;21092;-64
2021/11/18 05:25:34;;;;;;;109.75;55.90;;;;;;;-5.66;69.35;101136.98;1730831;82;20954;-66
2021/11/18 05:28:01;;;;;;;112.28;54.45;;;;;;;-5.64;69.30;101133.97;1719987;83;21013;-65
2021/11/18 05:30:28;;;;;;;109.85;54.10;;;;;;;-5.62;69.28;101135.67;1690108;84;23021;-66
2021/11/18 05:32:58;;;;;;;109.45;53.42;;;;;;;-5.60;69.27;101133.09;1699497;84;21017;-66
2021/11/18 05:35:27;;;;;;;114.70;55.90;;;;;;;-5.59;69.31;101138.27;1684253;83;21532;-66
2021/11/18 05:37:54;;;;;;;111.77;56.85;;;;;;;-5.57;69.37;101138.26;1684403;84;21528;-66
2021/11/18 05:40:23;;;;;;;109.17;55.43;;;;;;;-5.56;69.40;101129.24;1672491;84;20975;-66
2021/11/18 05:42:51;;;;;;;94.65;48.70;;;;;;;-5.53;69.44;101132.23;1653360;85;21949;-66
2021/11/18 05:45:22;;;;;;;103.50;49.27;;;;;;;-5.53;69.41;101131.80;1673855;85;21019;-66
2021/11/18 05:47:51;;;;;;;97.35;47.40;;;;;;;-5.54;69.38;101136.95;1672819;85;20971;-65
2021/11/18 05:50:18;;;;;;;95.32;47.55;;;;;;;-5.55;69.41;101132.23;1694801;84;21163;-66
2021/11/18 05:52:45;;;;;;;101.55;48.08;;;;;;;-5.56;69.45;101131.81;1701880;84;21080;-66
2021/11/18 05:55:15;;;;;;;98.20;48.40;;;;;;;-5.53;69.52;101129.66;1709860;83;21863;-66
2021/11/18 05:57:43;;;;;;;107.15;49.53;;;;;;;-5.49;69.58;101130.09;1741763;82;20961;-66
2021/11/18 06:00:13;;;;;;;101.47;48.68;;;;;;;-5.45;69.62;101133.52;1740713;82;21035;-66
2021/11/18 06:02:41;;;;;;;85.80;43.87;;;;;;;-5.42;69.67;101122.77;1740431;82;21017;-66
2021/11/18 06:05:09;;;;;;;86.32;43.08;;;;;;;-5.39;69.69;101120.21;1740764;82;21008;-66
2021/11/18 06:07:37;;;;;;;100.02;46.13;;;;;;;-5.36;69.74;101117.62;1753167;80;21499;-66
2021/11/18 06:10:06;;;;;;;88.15;46.10;;;;;;;-5.32;69.80;101119.74;1756407;79;20977;-66
2021/11/18 06:12:32;;;;;;;77.25;41.13;;;;;;;-5.28;69.88;101124.89;1769494;80;20973;-66
2021/11/18 06:15:03;;;;;;;88.90;43.33;;;;;;;-5.25;69.91;101126.16;1770955;80;21005;-66
2021/11/18 06:17:30;;;;;;;88.30;45.65;;;;;;;-5.23;69.95;101124.87;1770745;80;20988;-66
2021/11/18 06:19:57;;;;;;;78.35;39.88;;;;;;;-5.20;69.96;101132.61;1792260;79;21760;-66
2021/11/18 06:22:28;;;;;;;98.27;47.85;;;;;;;-5.16;70.04;101123.14;1772085;79;20937;-66
2021/11/18 06:24:54;;;;;;;93.17;47.40;;;;;;;-5.11;70.05;101120.14;1769916;80;20989;-66
2021/11/18 06:27:23;;;;;;;89.62;45.92;;;;;;;-5.06;70.12;101101.64;1757434;81;20970;-65
2021/11/18 06:29:49;;;;;;;93.80;45.63;;;;;;;-5.00;70.14;101102.48;1739355;80;21039;-66
2021/11/18 06:32:16;;;;;;;83.05;44.10;;;;;;;-4.98;70.13;101102.04;1771138;81;21800;-66
2021/11/18 06:34:43;;;;;;;89.17;45.90;;;;;;;-4.94;70.18;101109.31;1750815;81;21445;-66
2021/11/18 06:37:10;;;;;;;74.32;39.58;;;;;;;-4.90;70.23;101108.45;1786203;79;20986;-66
2021/11/18 06:39:40;;;;;;;75.32;39.98;;;;;;;-4.87;70.26;101108.43;1776783;79;21020;-66
2021/11/18 06:42:10;;;;;;;73.85;40.30;;;;;;;-4.83;70.33;101114.41;1768125;80;21040;-66
2021/11/18 06:44:39;;;;;;;82.25;41.35;;;;;;;-4.79;70.43;101112.27;1771408;80;21837;-67
2021/11/18 06:47:07;;;;;;;72.53;37.75;;;;;;;-4.75;70.51;101104.50;1770914;81;21020;-68
2021/11/18 06:49:36;;;;;;;81.47;40.15;;;;;;;-4.69;70.57;101108.34;1757119;79;21088;-67
2021/11/18 06:52:05;;;;;;;77.03;39.55;;;;;;;-4.64;70.62;101102.70;1724769;83;20962;-67
2021/11/18 06:54:32;;;;;;;82.37;41.02;;;;;;;-4.57;70.69;101103.98;1685844;83;20957;-67
2021/11/18 06:56:58;;;;;;;72.58;36.50;;;;;;;-4.50;70.78;101105.23;1702248;83;21823;-67
2021/11/18 06:59:25;;;;;;;71.80;39.83;;;;;;;-4.42;70.87;101110.34;1777164;80;20962;-66
2021/11/18 07:01:55;;;;;;;71.77;37.55;;;;;;;-4.33;70.89;101101.26;1751135;79;20985;-64
2021/11/18 07:04:20;;;;;;;60.85;34.13;;;;;;;-4.24;70.96;101099.05;1739342;81;21127;-62
2021/11/18 07:06:47;;;;;;;58.73;34.83;;;;;;;-4.13;71.15;101096.80;1763831;78;20995;-67
2021/11/18 07:09:15;;;;;;;69.45;34.78;;;;;;;-4.00;71.16;101098.84;1776257;80;22568;-65
2021/11/18 07:12:01;;;;;;;63.78;34.95;;;;;;;-3.89;71.20;101091.01;1784694;79;20993;-63
2021/11/18 07:14:27;;;;;;;66.28;35.92;;;;;;;-3.78;71.27;101088.75;1792966;79;21008;-64
2021/11/18 07:16:56;;;;;;;62.60;33.42;;;;;;;-3.68;71.26;101095.97;1757703;79;21417;-64
2021/11/18 07:19:23;;;;;;;63.70;34.80;;;;;;;-3.57;71.39;101092.88;1777302;80;20937;-66
2021/11/18 07:21:49;;;;;;;60.58;34.08;;;;;;;-3.44;71.51;101084.98;1775326;80;21815;-65
2021/11/18 07:24:17;;;;;;;51.50;28.70;;;;;;;-3.30;71.55;101088.27;1777266;80;20993;-65
2021/11/18 07:26:45;;;;;;;54.85;30.62;;;;;;;-3.18;71.55;101086.86;1755169;80;20946;-65
2021/11/18 07:29:11;;;;;;;48.65;28.25;;;;;;;-3.09;71.46;101078.11;1745345;81;20966;-66
2021/11/18 07:31:38;;;;;;;70.70;36.48;;;;;;;-3.02;71.35;101075.44;1749527;80;21538;-65
2021/11/18 07:34:05;;;;;;;66.77;37.73;;;;;;;-2.95;71.26;101066.73;1746562;80;21783;-65
2021/11/18 07:36:35;;;;;;;93.62;49.50;;;;;;;-2.87;71.27;101061.92;1755854;80;21598;-65
2021/11/18 07:39:04;;;;;;;86.28;46.40;;;;;;;-2.84;71.21;101057.55;1747814;80;20986;-64
2021/11/18 07:41:33;;;;;;;102.53;52.40;;;;;;;-2.80;71.21;101055.77;1739833;82;20962;-65
2021/11/18 07:44:11;;;;;;;74.15;39.83;;;;;;;-2.72;71.28;101059.95;1737343;82;21490;-63
2021/11/18 07:46:45;;;;;;;105.60;50.88;;;;;;;-2.64;71.24;101065.03;1720947;80;21826;-65
2021/11/18 07:49:14;;;;;;;97.40;47.90;;;;;;;-2.57;71.21;101066.66;1759388;80;20922;-64
2021/11/18 07:51:44;;;;;;;74.65;37.70;;;;;;;-2.49;71.25;101063.97;1784526;79;20950;-64
2021/11/18 07:54:15;;;;;;;56.85;35.05;;;;;;;-2.42;71.27;101060.39;1803543;79;20989;-64
2021/11/18 07:56:44;;;;;;;54.58;32.67;;;;;;;-2.34;71.31;101060.69;1788322;79;20934;-64
2021/11/18 07:59:12;;;;;;;60.00;35.13;;;;;;;-2.26;71.32;101066.19;1783190;79;21761;-65
2021/11/18 08:01:40;;;;;;;63.23;33.33;;;;;;;-2.20;71.34;101064.81;1771505;79;21319;-65
2021/11/18 08:04:09;;;;;;;50.33;29.98;;;;;;;-2.13;71.37;101060.78;1783463;80;20973;-63
2021/11/18 08:06:40;;;;;;;50.43;30.02;;;;;;;-2.06;71.39;101053.78;1770425;79;21049;-66
2021/11/18 08:09:10;;;;;;;51.23;29.12;;;;;;;-1.99;71.40;101059.28;1761407;81;20981;-64
2021/11/18 08:11:51;;;;;;;73.78;41.90;;;;;;;-1.94;71.35;101054.00;1761036;81;21897;-65
2021/11/18 08:14:19;;;;;;;67.78;39.15;;;;;;;-1.90;71.45;101050.06;1771246;80;38249;-64
2021/11/18 08:16:47;;;;;;;65.08;38.42;;;;;;;-1.84;71.39;101060.73;1781534;79;21009;-64
2021/11/18 08:19:15;;;;;;;54.40;32.88;;;;;;;-1.80;71.45;101060.67;1749792;82;20993;-64
2021/11/18 08:21:43;;;;;;;58.02;34.35;;;;;;;-1.75;71.44;101061.87;1761692;79;21412;-65
2021/11/18 08:24:13;;;;;;;65.53;34.57;;;;;;;-1.70;71.41;101057.91;1761930;79;22432;-65
2021/11/18 08:26:40;;;;;;;61.63;33.35;;;;;;;-1.68;71.25;101071.23;1775629;80;20941;-64
2021/11/18 08:29:10;;;;;;;55.00;33.08;;;;;;;-1.66;71.10;101067.33;1751537;81;20997;-65
2021/11/18 08:31:37;;;;;;;82.72;41.10;;;;;;;-1.69;71.03;101072.13;1749847;81;21030;-64
2021/11/18 08:34:22;;;;;;;87.40;42.15;;;;;;;-1.69;71.02;101072.13;1731171;83;20937;-65
2021/11/18 08:36:50;;;;;;;78.25;36.93;;;;;;;-1.71;70.78;101064.83;1744780;80;21827;-65
2021/11/18 08:39:20;;;;;;;49.18;28.40;;;;;;;-1.73;70.50;101075.66;1788163;79;21471;-64
2021/11/18 08:41:51;;;;;;;64.27;33.53;;;;;;;-1.80;70.14;101074.91;1761245;81;21464;-65
2021/11/18 08:44:18;;;;;;;58.75;32.53;;;;;;;-1.80;70.19;101077.50;1761205;81;21433;-65
2021/11/18 08:46:46;;;;;;;43.75;26.80;;;;;;;-1.75;70.32;101076.96;1762853;80;21408;-67
2021/11/18 08:49:13;;;;;;;70.15;38.48;;;;;;;-1.70;70.15;101064.39;1762690;80;21789;-65
2021/11/18 08:51:39;;;;;;;60.30;34.05;;;;;;;-1.64;69.96;101066.84;1729141;81;21018;-66
2021/11/18 08:54:09;;;;;;;56.37;32.35;;;;;;;-1.53;69.98;101068.38;1699704;84;21018;-66
2021/11/18 08:56:38;;;;;;;46.20;28.27;;;;;;;-1.35;70.02;101053.34;1759460;81;21028;-66
2021/11/18 08:59:07;;;;;;;42.83;26.20;;;;;;;-1.14;70.05;101062.02;1770945;79;21016;-66
2021/11/18 09:01:44;;;;;;;44.08;25.35;;;;;;;-0.91;70.17;101062.82;1761794;79;21812;-67
2021/11/18 09:04:17;;;;;;;47.03;27.80;;;;;;;-0.74;69.84;101071.10;1683368;84;21420;-66
2021/11/18 09:06:44;;;;;;;40.08;25.25;;;;;;;-0.63;69.86;101066.53;1756775;80;21001;-66
2021/11/18 09:09:13;;;;;;;57.20;32.80;;;;;;;-0.52;69.73;101058.94;1774252;80;21055;-66
2021/11/18 09:11:41;;;;;;;56.28;31.55;;;;;;;-0.47;69.47;101054.52;1777005;80;20992;-66
2021/11/18 09:14:10;;;;;;;51.33;29.98;;;;;;;-0.44;69.25;101048.80;1782214;79;21987;-66
2021/11/18 09:16:38;;;;;;;48.10;27.32;;;;;;;-0.41;69.29;101042.67;1770310;80;21456;-65
2021/11/18 09:19:14;;;;;;;55.98;33.23;;;;;;;-0.36;69.17;101038.24;1771384;79;21526;-66
2021/11/18 09:21:42;;;;;;;59.20;34.65;;;;;;;-0.33;69.07;101032.52;1777264;80;21008;-65
2021/11/18 09:24:18;;;;;;;51.25;30.60;;;;;;;-0.28;69.13;101031.13;1775435;80;21011;-65
2021/11/18 09:26:49;;;;;;;45.83;27.10;;;;;;;-0.23;69.23;101033.15;1707294;82;21848;-64
2021/11/18 09:29:16;;;;;;;47.78;27.50;;;;;;;-0.17;69.27;101027.82;1704510;83;21416;-64
2021/11/18 09:31:50;;;;;;;47.88;28.98;;;;;;;-0.13;69.25;101024.69;1694582;84;21508;-64
2021/11/18 09:34:17;;;;;;;46.00;26.62;;;;;;;-0.10;69.38;101026.75;1701707;84;21528;-64
2021/11/18 09:36:43;;;;;;;45.17;25.95;;;;;;;-0.04;69.47;101029.20;1712913;82;20961;-64
2021/11/18 09:39:11;;;;;;;46.55;27.55;;;;;;;0.04;69.62;101019.08;1700336;82;21826;-64
2021/11/18 09:42:08;;;;;;;46.53;27.62;;;;;;;0.10;69.61;101013.73;1684003;82;20942;-64
2021/11/18 09:45:15;;;;;;;47.75;27.25;;;;;;;0.17;69.60;101016.55;1764751;80;20972;-64
2021/11/18 09:48:07;;;;;;;41.18;26.10;;;;;;;0.23;69.47;101017.70;1777198;80;21040;-64
2021/11/18 09:51:02;;;;;;;48.13;28.42;;;;;;;0.25;69.08;101018.52;1775093;79;20972;-65
2021/11/18 09:53:53;;;;;;;45.20;27.80;;;;;;;0.19;68.79;101016.95;1767243;80;21841;-65
2021/11/18 09:56:29;;;;;;;39.42;24.63;;;;;;;0.18;68.68;101015.66;1756387;81;20985;-65
2021/11/18 09:59:24;;;;;;;44.18;27.05;;;;;;;0.17;68.57;101014.81;1701051;83;20985;-65
2021/11/18 10:02:38;;;;;;;47.45;28.25;;;;;;;0.14;68.39;101019.25;1787410;79;20942;-67
2021/11/18 10:05:16;;;;;;;50.83;29.23;;;;;;;0.08;68.32;101014.20;1744939;79;20989;-65
2021/11/18 10:07:57;;;;;;;52.58;31.77;;;;;;;0.01;68.29;101008.78;1763319;81;21862;-66
2021/11/18 10:10:39;;;;;;;55.75;33.48;;;;;;;-0.03;68.26;101010.58;1700274;84;20965;-65
2021/11/18 10:13:14;;;;;;;52.83;32.55;;;;;;;-0.07;68.35;101002.48;1733763;81;20942;-65
2021/11/18 10:16:15;;;;;;;47.43;28.57;;;;;;;-0.08;68.40;100996.44;1716375;81;21137;-65
2021/11/18 10:18:48;;;;;;;48.50;29.63;;;;;;;-0.07;68.55;100994.23;1733785;81;21385;-65
2021/11/18 10:21:29;;;;;;;51.83;31.60;;;;;;;-0.05;68.65;100996.34;1691645;82;21843;-66
2021/11/18 10:24:01;;;;;;;45.67;29.75;;;;;;;-0.04;68.70;100986.80;1672361;85;20953;-65
2021/11/18 10:26:40;;;;;;;49.93;30.12;;;;;;;-0.05;68.73;100993.75;1696339;84;21005;-66
2021/11/18 10:29:23;;;;;;;47.98;29.12;;;;;;;-0.05;68.71;100983.81;1757771;79;21367;-66
2021/11/18 10:31:57;;;;;;;49.80;27.75;;;;;;;-0.06;68.72;100985.55;1779102;80;22431;-67
2021/11/18 10:34:32;;;;;;;44.83;27.73;;;;;;;-0.05;68.83;100974.72;1767841;80;22641;-66
2021/11/18 10:37:20;;;;;;;50.48;29.23;;;;;;;-0.02;68.86;100978.08;1762383;79;21444;-66
2021/11/18 10:40:24;;;;;;;46.00;28.35;;;;;;;0.01;68.82;100963.33;1769622;79;21084;-66
2021/11/18 10:43:15;;;;;;;45.55;27.85;;;;;;;0.05;68.88;100957.15;1736005;82;28664;-65
2021/11/18 10:45:46;;;;;;;45.23;28.32;;;;;;;0.08;68.86;100959.66;1743595;80;20976;-65
2021/11/18 10:48:30;;;;;;;43.63;26.48;;;;;;;0.10;68.86;100951.40;1783893;79;21830;-65
2021/11/18 10:51:18;;;;;;;41.95;25.52;;;;;;;0.12;68.94;100953.50;1743318;82;21086;-66
2021/11/18 10:53:59;;;;;;;45.90;26.52;;;;;;;0.14;68.90;100940.87;1746644;79;21032;-67
2021/11/18 10:56:58;;;;;;;43.58;27.60;;;;;;;0.14;68.90;100934.38;1756005;79;21515;-67
2021/11/18 10:59:42;;;;;;;46.33;28.27;;;;;;;0.16;68.89;100933.88;1754450;81;20946;-66
2021/11/18 11:02:33;;;;;;;43.70;24.82;;;;;;;0.17;68.92;100936.88;1719513;81;21823;-67
2021/11/18 11:05:05;;;;;;;42.08;26.45;;;;;;;0.20;68.98;100938.56;1752030;81;20958;-66
2021/11/18 11:07:38;;;;;;;43.08;25.40;;;;;;;0.22;69.01;100939.37;1754245;81;20953;-66
2021/11/18 11:10:12;;;;;;;39.58;23.65;;;;;;;0.22;69.02;100925.92;1755913;81;20962;-66
2021/11/18 11:13:16;;;;;;;46.42;26.68;;;;;;;0.23;68.99;100920.28;1754515;81;21408;-67
2021/11/18 11:15:58;;;;;;;44.53;27.35;;;;;;;0.21;69.07;100916.44;1755654;80;21856;-66
2021/11/18 11:18:48;;;;;;;44.33;25.20;;;;;;;0.20;69.09;100920.38;1745911;81;21000;-65
2021/11/18 11:21:53;;;;;;;46.58;28.05;;;;;;;0.21;69.25;100920.78;1736171;80;21040;-66
2021/11/18 11:24:46;;;;;;;49.88;29.80;;;;;;;0.22;69.33;100922.03;1748050;81;21503;-65
2021/11/18 11:27:47;;;;;;;47.20;29.27;;;;;;;0.29;69.46;100924.02;1756698;81;20950;-66